sensor_id;sensor_type;location;lat;lon;timestamp;P1;durP1;ratioP1;P2;durP2;ratioP2
40022;SDS011;25713;-35.352;149.036;2022-08-19T00:02:13;0.10;;;0.10;;
40022;SDS011;25713;-35.352;149.036;2022-08-19T00:04:42;0.13;;;0.13;;
40022;SDS011;25713;-35.352;149.036;2022-08-19T00:07:11;0.10;;;0.10;;
40022;SDS011;25713;-35.352;149.036;2022-08-19T00:09:41;0.22;;;0.10;;
40022;SDS011;25713;-35.352;149.036;2022-08-19T00:12:12;1.65;;;0.22;;
40022;SDS011;25713;-35.352;149.036;2022-08-19T00:14:42;0.30;;;0.20;;
40022;SDS011;25713;-35.352;149.036;2022-08-19T00:17:11;0.20;;;0.20;;
40022;SDS011;25713;-35.352;149.036;2022-08-19T00:19:40;0.10;;;0.10;;
40022;SDS011;25713;-35.352;149.036;2022-08-19T00:22:10;0.20;;;0.20;;
40022;SDS011;25713;-35.352;149.036;2022-08-19T00:24:39;0.13;;;0.10;;
40022;SDS011;25713;-35.352;149.036;2022-08-19T00:27:09;0.20;;;0.20;;
40022;SDS011;25713;-35.352;149.036;2022-08-19T00:29:40;0.10;;;0.10;;
40022;SDS011;25713;-35.352;149.036;2022-08-19T00:32:09;0.20;;;0.10;;
40022;SDS011;25713;-35.352;149.036;2022-08-19T00:34:39;0.43;;;0.20;;
40022;SDS011;25713;-35.352;149.036;2022-08-19T00:37:08;0.25;;;0.10;;
40022;SDS011;25713;-35.352;149.036;2022-08-19T00:39:37;0.10;;;0.10;;
40022;SDS011;25713;-35.352;149.036;2022-08-19T00:42:07;0.10;;;0.10;;
40022;SDS011;25713;-35.352;149.036;2022-08-19T00:44:38;0.20;;;0.20;;
40022;SDS011;25713;-35.352;149.036;2022-08-19T00:47:07;0.20;;;0.20;;
40022;SDS011;25713;-35.352;149.036;2022-08-19T00:49:37;0.20;;;0.20;;
40022;SDS011;25713;-35.352;149.036;2022-08-19T00:52:11;0.10;;;0.10;;
40022;SDS011;25713;-35.352;149.036;2022-08-19T00:54:46;0.03;;;0.03;;
40022;SDS011;25713;-35.352;149.036;2022-08-19T00:57:18;0.15;;;0.10;;
40022;SDS011;25713;-35.352;149.036;2022-08-19T00:59:55;0.13;;;0.10;;
40022;SDS011;25713;-35.352;149.036;2022-08-19T01:04:54;0.08;;;0.08;;
40022;SDS011;25713;-35.352;149.036;2022-08-19T01:07:23;0.20;;;0.10;;
40022;SDS011;25713;-35.352;149.036;2022-08-19T01:09:53;0.28;;;0.10;;
40022;SDS011;25713;-35.352;149.036;2022-08-19T01:12:22;0.10;;;0.10;;
40022;SDS011;25713;-35.352;149.036;2022-08-19T01:14:52;0.20;;;0.13;;
40022;SDS011;25713;-35.352;149.036;2022-08-19T01:17:24;0.10;;;0.10;;
40022;SDS011;25713;-35.352;149.036;2022-08-19T01:19:54;0.13;;;0.10;;
40022;SDS011;25713;-35.352;149.036;2022-08-19T01:22:29;0.00;;;0.00;;
40022;SDS011;25713;-35.352;149.036;2022-08-19T01:25:02;0.10;;;0.10;;
40022;SDS011;25713;-35.352;149.036;2022-08-19T01:27:37;0.10;;;0.10;;
40022;SDS011;25713;-35.352;149.036;2022-08-19T01:30:08;0.17;;;0.17;;
40022;SDS011;25713;-35.352;149.036;2022-08-19T01:32:39;1.15;;;0.20;;
40022;SDS011;25713;-35.352;149.036;2022-08-19T01:35:09;0.10;;;0.10;;
40022;SDS011;25713;-35.352;149.036;2022-08-19T01:37:46;0.17;;;0.17;;
40022;SDS011;25713;-35.352;149.036;2022-08-19T01:40:16;0.28;;;0.10;;
40022;SDS011;25713;-35.352;149.036;2022-08-19T01:42:47;0.00;;;0.00;;
40022;SDS011;25713;-35.352;149.036;2022-08-19T01:45:17;0.10;;;0.10;;
40022;SDS011;25713;-35.352;149.036;2022-08-19T01:47:47;0.00;;;0.00;;
40022;SDS011;25713;-35.352;149.036;2022-08-19T01:50:17;2.17;;;0.10;;
40022;SDS011;25713;-35.352;149.036;2022-08-19T01:52:48;0.20;;;0.10;;
40022;SDS011;25713;-35.352;149.036;2022-08-19T01:55:19;0.30;;;0.20;;
40022;SDS011;25713;-35.352;149.036;2022-08-19T01:57:50;0.63;;;0.20;;
40022;SDS011;25713;-35.352;149.036;2022-08-19T02:00:22;0.10;;;0.10;;
40022;SDS011;25713;-35.352;149.036;2022-08-19T02:02:53;0.15;;;0.10;;
40022;SDS011;25713;-35.352;149.036;2022-08-19T02:05:22;0.10;;;0.10;;
40022;SDS011;25713;-35.352;149.036;2022-08-19T02:07:54;0.47;;;0.10;;
40022;SDS011;25713;-35.352;149.036;2022-08-19T02:10:23;2.17;;;0.20;;
40022;SDS011;25713;-35.352;149.036;2022-08-19T02:12:53;0.20;;;0.10;;
40022;SDS011;25713;-35.352;149.036;2022-08-19T02:15:22;0.57;;;0.10;;
40022;SDS011;25713;-35.352;149.036;2022-08-19T02:17:51;0.40;;;0.20;;
40022;SDS011;25713;-35.352;149.036;2022-08-19T02:20:21;0.10;;;0.10;;
40022;SDS011;25713;-35.352;149.036;2022-08-19T02:22:50;0.35;;;0.20;;
40022;SDS011;25713;-35.352;149.036;2022-08-19T02:25:22;0.38;;;0.10;;
40022;SDS011;25713;-35.352;149.036;2022-08-19T02:27:51;0.13;;;0.10;;
40022;SDS011;25713;-35.352;149.036;2022-08-19T02:30:22;0.20;;;0.10;;
40022;SDS011;25713;-35.352;149.036;2022-08-19T02:32:52;0.30;;;0.20;;
40022;SDS011;25713;-35.352;149.036;2022-08-19T02:35:21;0.30;;;0.17;;
40022;SDS011;25713;-35.352;149.036;2022-08-19T02:37:51;0.10;;;0.10;;
40022;SDS011;25713;-35.352;149.036;2022-08-19T02:40:22;0.85;;;0.22;;
40022;SDS011;25713;-35.352;149.036;2022-08-19T02:42:51;0.22;;;0.20;;
40022;SDS011;25713;-35.352;149.036;2022-08-19T02:45:21;0.35;;;0.20;;
40022;SDS011;25713;-35.352;149.036;2022-08-19T02:47:50;0.20;;;0.20;;
40022;SDS011;25713;-35.352;149.036;2022-08-19T02:50:20;0.20;;;0.20;;
40022;SDS011;25713;-35.352;149.036;2022-08-19T02:52:49;0.50;;;0.10;;
40022;SDS011;25713;-35.352;149.036;2022-08-19T02:55:20;0.15;;;0.10;;
40022;SDS011;25713;-35.352;149.036;2022-08-19T02:57:50;1.38;;;0.10;;
40022;SDS011;25713;-35.352;149.036;2022-08-19T03:00:19;0.17;;;0.10;;
40022;SDS011;25713;-35.352;149.036;2022-08-19T03:02:49;0.20;;;0.20;;
40022;SDS011;25713;-35.352;149.036;2022-08-19T03:05:19;0.20;;;0.20;;
40022;SDS011;25713;-35.352;149.036;2022-08-19T03:07:48;0.30;;;0.10;;
40022;SDS011;25713;-35.352;149.036;2022-08-19T03:10:18;0.20;;;0.20;;
40022;SDS011;25713;-35.352;149.036;2022-08-19T03:12:49;0.10;;;0.10;;
40022;SDS011;25713;-35.352;149.036;2022-08-19T03:15:18;0.10;;;0.10;;
40022;SDS011;25713;-35.352;149.036;2022-08-19T03:17:48;0.20;;;0.20;;
40022;SDS011;25713;-35.352;149.036;2022-08-19T03:20:17;0.10;;;0.10;;
40022;SDS011;25713;-35.352;149.036;2022-08-19T03:22:46;0.20;;;0.20;;
40022;SDS011;25713;-35.352;149.036;2022-08-19T03:25:16;0.10;;;0.10;;
40022;SDS011;25713;-35.352;149.036;2022-08-19T03:27:47;0.20;;;0.20;;
40022;SDS011;25713;-35.352;149.036;2022-08-19T03:30:17;0.25;;;0.25;;
40022;SDS011;25713;-35.352;149.036;2022-08-19T03:32:46;0.10;;;0.10;;
40022;SDS011;25713;-35.352;149.036;2022-08-19T03:35:16;0.10;;;0.10;;
40022;SDS011;25713;-35.352;149.036;2022-08-19T03:37:45;0.20;;;0.10;;
40022;SDS011;25713;-35.352;149.036;2022-08-19T03:40:15;0.10;;;0.10;;
40022;SDS011;25713;-35.352;149.036;2022-08-19T03:42:44;0.35;;;0.20;;
40022;SDS011;25713;-35.352;149.036;2022-08-19T03:45:15;0.10;;;0.10;;
40022;SDS011;25713;-35.352;149.036;2022-08-19T03:47:45;0.10;;;0.10;;
40022;SDS011;25713;-35.352;149.036;2022-08-19T03:50:14;0.30;;;0.20;;
40022;SDS011;25713;-35.352;149.036;2022-08-19T03:52:47;0.03;;;0.03;;
40022;SDS011;25713;-35.352;149.036;2022-08-19T03:55:18;0.10;;;0.10;;
40022;SDS011;25713;-35.352;149.036;2022-08-19T03:57:49;0.10;;;0.10;;
40022;SDS011;25713;-35.352;149.036;2022-08-19T04:00:18;0.00;;;0.00;;
40022;SDS011;25713;-35.352;149.036;2022-08-19T04:02:48;0.03;;;0.03;;
40022;SDS011;25713;-35.352;149.036;2022-08-19T04:05:18;0.10;;;0.10;;
40022;SDS011;25713;-35.352;149.036;2022-08-19T04:07:47;1.35;;;0.10;;
40022;SDS011;25713;-35.352;149.036;2022-08-19T04:10:16;0.10;;;0.10;;
40022;SDS011;25713;-35.352;149.036;2022-08-19T04:12:46;0.45;;;0.10;;
40022;SDS011;25713;-35.352;149.036;2022-08-19T04:15:17;0.47;;;0.10;;
40022;SDS011;25713;-35.352;149.036;2022-08-19T04:17:46;0.20;;;0.20;;
40022;SDS011;25713;-35.352;149.036;2022-08-19T04:20:16;0.10;;;0.10;;
40022;SDS011;25713;-35.352;149.036;2022-08-19T04:22:45;0.10;;;0.10;;
40022;SDS011;25713;-35.352;149.036;2022-08-19T04:25:14;0.10;;;0.10;;
40022;SDS011;25713;-35.352;149.036;2022-08-19T04:27:44;0.25;;;0.13;;
40022;SDS011;25713;-35.352;149.036;2022-08-19T04:30:15;0.00;;;0.00;;
40022;SDS011;25713;-35.352;149.036;2022-08-19T04:32:45;0.20;;;0.20;;
40022;SDS011;25713;-35.352;149.036;2022-08-19T04:35:14;0.10;;;0.10;;
40022;SDS011;25713;-35.352;149.036;2022-08-19T04:37:44;0.10;;;0.10;;
40022;SDS011;25713;-35.352;149.036;2022-08-19T04:40:13;0.10;;;0.10;;
40022;SDS011;25713;-35.352;149.036;2022-08-19T04:42:42;0.10;;;0.10;;
40022;SDS011;25713;-35.352;149.036;2022-08-19T04:45:13;0.10;;;0.10;;
40022;SDS011;25713;-35.352;149.036;2022-08-19T04:47:44;0.13;;;0.00;;
40022;SDS011;25713;-35.352;149.036;2022-08-19T04:50:14;0.22;;;0.10;;
40022;SDS011;25713;-35.352;149.036;2022-08-19T04:52:46;0.25;;;0.10;;
40022;SDS011;25713;-35.352;149.036;2022-08-19T04:55:17;0.85;;;0.10;;
40022;SDS011;25713;-35.352;149.036;2022-08-19T04:57:46;1.02;;;0.10;;
40022;SDS011;25713;-35.352;149.036;2022-08-19T05:00:18;0.10;;;0.10;;
40022;SDS011;25713;-35.352;149.036;2022-08-19T05:02:47;0.10;;;0.10;;
40022;SDS011;25713;-35.352;149.036;2022-08-19T05:05:17;0.38;;;0.10;;
40022;SDS011;25713;-35.352;149.036;2022-08-19T05:07:47;1.30;;;0.20;;
40022;SDS011;25713;-35.352;149.036;2022-08-19T05:10:16;0.10;;;0.10;;
40022;SDS011;25713;-35.352;149.036;2022-08-19T05:12:45;0.10;;;0.10;;
40022;SDS011;25713;-35.352;149.036;2022-08-19T05:15:15;0.10;;;0.10;;
40022;SDS011;25713;-35.352;149.036;2022-08-19T05:17:46;0.10;;;0.10;;
40022;SDS011;25713;-35.352;149.036;2022-08-19T05:20:16;0.63;;;0.00;;
40022;SDS011;25713;-35.352;149.036;2022-08-19T05:22:45;0.10;;;0.10;;
40022;SDS011;25713;-35.352;149.036;2022-08-19T05:25:15;0.40;;;0.17;;
40022;SDS011;25713;-35.352;149.036;2022-08-19T05:27:46;0.10;;;0.10;;
40022;SDS011;25713;-35.352;149.036;2022-08-19T05:30:15;0.20;;;0.20;;
40022;SDS011;25713;-35.352;149.036;2022-08-19T05:32:47;0.10;;;0.10;;
40022;SDS011;25713;-35.352;149.036;2022-08-19T05:35:16;0.00;;;0.00;;
40022;SDS011;25713;-35.352;149.036;2022-08-19T05:37:46;0.10;;;0.10;;
40022;SDS011;25713;-35.352;149.036;2022-08-19T05:40:15;0.10;;;0.10;;
40022;SDS011;25713;-35.352;149.036;2022-08-19T05:42:44;0.10;;;0.10;;
40022;SDS011;25713;-35.352;149.036;2022-08-19T05:45:14;0.10;;;0.10;;
40022;SDS011;25713;-35.352;149.036;2022-08-19T05:47:45;0.30;;;0.30;;
40022;SDS011;25713;-35.352;149.036;2022-08-19T05:50:15;0.20;;;0.20;;
40022;SDS011;25713;-35.352;149.036;2022-08-19T05:52:44;0.10;;;0.10;;
40022;SDS011;25713;-35.352;149.036;2022-08-19T05:55:13;0.38;;;0.20;;
40022;SDS011;25713;-35.352;149.036;2022-08-19T05:57:43;0.20;;;0.20;;
40022;SDS011;25713;-35.352;149.036;2022-08-19T06:00:12;0.20;;;0.20;;
40022;SDS011;25713;-35.352;149.036;2022-08-19T06:02:42;0.75;;;0.30;;
40022;SDS011;25713;-35.352;149.036;2022-08-19T06:05:14;0.10;;;0.10;;
40022;SDS011;25713;-35.352;149.036;2022-08-19T06:07:43;0.10;;;0.10;;
40022;SDS011;25713;-35.352;149.036;2022-08-19T06:10:13;0.10;;;0.10;;
40022;SDS011;25713;-35.352;149.036;2022-08-19T06:12:42;0.25;;;0.10;;
40022;SDS011;25713;-35.352;149.036;2022-08-19T06:15:12;0.45;;;0.17;;
40022;SDS011;25713;-35.352;149.036;2022-08-19T06:17:42;0.20;;;0.13;;
40022;SDS011;25713;-35.352;149.036;2022-08-19T06:20:14;0.10;;;0.10;;
40022;SDS011;25713;-35.352;149.036;2022-08-19T06:22:44;0.10;;;0.10;;
40022;SDS011;25713;-35.352;149.036;2022-08-19T06:25:14;0.10;;;0.10;;
40022;SDS011;25713;-35.352;149.036;2022-08-19T06:27:44;0.20;;;0.10;;
40022;SDS011;25713;-35.352;149.036;2022-08-19T06:30:13;0.32;;;0.20;;
40022;SDS011;25713;-35.352;149.036;2022-08-19T06:32:43;0.22;;;0.22;;
40022;SDS011;25713;-35.352;149.036;2022-08-19T06:35:14;0.43;;;0.20;;
40022;SDS011;25713;-35.352;149.036;2022-08-19T06:40:15;0.20;;;0.20;;
40022;SDS011;25713;-35.352;149.036;2022-08-19T06:42:44;0.10;;;0.10;;
40022;SDS011;25713;-35.352;149.036;2022-08-19T06:45:14;2.15;;;0.20;;
40022;SDS011;25713;-35.352;149.036;2022-08-19T06:47:43;23.10;;;0.88;;
40022;SDS011;25713;-35.352;149.036;2022-08-19T06:50:14;0.10;;;0.10;;
40022;SDS011;25713;-35.352;149.036;2022-08-19T06:52:44;0.20;;;0.20;;
40022;SDS011;25713;-35.352;149.036;2022-08-19T06:55:13;0.20;;;0.20;;
40022;SDS011;25713;-35.352;149.036;2022-08-19T06:57:43;0.32;;;0.13;;
40022;SDS011;25713;-35.352;149.036;2022-08-19T07:00:13;0.77;;;0.20;;
40022;SDS011;25713;-35.352;149.036;2022-08-19T07:02:42;0.28;;;0.20;;
40022;SDS011;25713;-35.352;149.036;2022-08-19T07:05:14;1.48;;;0.10;;
40022;SDS011;25713;-35.352;149.036;2022-08-19T07:07:43;0.20;;;0.10;;
40022;SDS011;25713;-35.352;149.036;2022-08-19T07:10:13;0.20;;;0.10;;
40022;SDS011;25713;-35.352;149.036;2022-08-19T07:12:42;0.20;;;0.20;;
40022;SDS011;25713;-35.352;149.036;2022-08-19T07:15:12;0.80;;;0.10;;
40022;SDS011;25713;-35.352;149.036;2022-08-19T07:17:41;0.13;;;0.10;;
40022;SDS011;25713;-35.352;149.036;2022-08-19T07:20:13;1.05;;;0.10;;
40022;SDS011;25713;-35.352;149.036;2022-08-19T07:22:42;0.20;;;0.20;;
40022;SDS011;25713;-35.352;149.036;2022-08-19T07:25:12;1.10;;;0.10;;
40022;SDS011;25713;-35.352;149.036;2022-08-19T07:27:41;0.43;;;0.20;;
40022;SDS011;25713;-35.352;149.036;2022-08-19T07:30:11;0.20;;;0.10;;
40022;SDS011;25713;-35.352;149.036;2022-08-19T07:32:40;1.15;;;0.17;;
40022;SDS011;25713;-35.352;149.036;2022-08-19T07:35:10;0.10;;;0.10;;
40022;SDS011;25713;-35.352;149.036;2022-08-19T07:37:41;0.55;;;0.20;;
40022;SDS011;25713;-35.352;149.036;2022-08-19T07:40:11;0.30;;;0.15;;
40022;SDS011;25713;-35.352;149.036;2022-08-19T07:42:41;1.27;;;0.32;;
40022;SDS011;25713;-35.352;149.036;2022-08-19T07:45:10;0.75;;;0.30;;
40022;SDS011;25713;-35.352;149.036;2022-08-19T07:47:40;1.45;;;0.32;;
40022;SDS011;25713;-35.352;149.036;2022-08-19T07:50:10;1.40;;;0.45;;
40022;SDS011;25713;-35.352;149.036;2022-08-19T07:52:41;1.45;;;0.50;;
40022;SDS011;25713;-35.352;149.036;2022-08-19T07:55:11;1.80;;;0.65;;
40022;SDS011;25713;-35.352;149.036;2022-08-19T07:57:41;1.67;;;0.73;;
40022;SDS011;25713;-35.352;149.036;2022-08-19T08:00:10;0.85;;;0.30;;
40022;SDS011;25713;-35.352;149.036;2022-08-19T08:02:40;4.43;;;2.28;;
40022;SDS011;25713;-35.352;149.036;2022-08-19T08:05:10;2.70;;;1.40;;
40022;SDS011;25713;-35.352;149.036;2022-08-19T08:07:41;3.33;;;1.63;;
40022;SDS011;25713;-35.352;149.036;2022-08-19T08:10:11;2.28;;;1.08;;
40022;SDS011;25713;-35.352;149.036;2022-08-19T08:12:40;3.47;;;1.50;;
40022;SDS011;25713;-35.352;149.036;2022-08-19T08:15:10;2.08;;;1.13;;
40022;SDS011;25713;-35.352;149.036;2022-08-19T08:17:43;1.42;;;0.90;;
40022;SDS011;25713;-35.352;149.036;2022-08-19T08:20:14;2.67;;;1.10;;
40022;SDS011;25713;-35.352;149.036;2022-08-19T08:22:44;1.93;;;0.70;;
40022;SDS011;25713;-35.352;149.036;2022-08-19T08:25:16;2.63;;;0.65;;
40022;SDS011;25713;-35.352;149.036;2022-08-19T08:27:46;2.17;;;0.70;;
40022;SDS011;25713;-35.352;149.036;2022-08-19T08:30:17;1.17;;;0.80;;
40022;SDS011;25713;-35.352;149.036;2022-08-19T08:32:47;2.13;;;0.70;;
40022;SDS011;25713;-35.352;149.036;2022-08-19T08:35:19;2.22;;;0.65;;
40022;SDS011;25713;-35.352;149.036;2022-08-19T08:37:51;1.42;;;0.55;;
40022;SDS011;25713;-35.352;149.036;2022-08-19T08:40:22;1.98;;;0.65;;
40022;SDS011;25713;-35.352;149.036;2022-08-19T08:42:57;1.83;;;0.70;;
40022;SDS011;25713;-35.352;149.036;2022-08-19T08:45:31;2.17;;;0.47;;
40022;SDS011;25713;-35.352;149.036;2022-08-19T08:48:06;2.17;;;0.60;;
40022;SDS011;25713;-35.352;149.036;2022-08-19T08:50:44;0.80;;;0.50;;
40022;SDS011;25713;-35.352;149.036;2022-08-19T08:53:16;2.17;;;0.40;;
40022;SDS011;25713;-35.352;149.036;2022-08-19T08:55:46;2.03;;;0.50;;
40022;SDS011;25713;-35.352;149.036;2022-08-19T08:58:17;0.85;;;0.50;;
40022;SDS011;25713;-35.352;149.036;2022-08-19T09:00:53;1.70;;;0.50;;
40022;SDS011;25713;-35.352;149.036;2022-08-19T09:03:22;1.20;;;0.47;;
40022;SDS011;25713;-35.352;149.036;2022-08-19T09:05:57;5.05;;;0.60;;
40022;SDS011;25713;-35.352;149.036;2022-08-19T09:08:33;0.85;;;0.40;;
40022;SDS011;25713;-35.352;149.036;2022-08-19T09:11:19;1.45;;;0.50;;
40022;SDS011;25713;-35.352;149.036;2022-08-19T09:14:02;2.15;;;0.70;;
40022;SDS011;25713;-35.352;149.036;2022-08-19T09:19:09;3.92;;;0.60;;
40022;SDS011;25713;-35.352;149.036;2022-08-19T09:21:41;4.10;;;0.73;;
40022;SDS011;25713;-35.352;149.036;2022-08-19T09:24:10;1.47;;;0.47;;
40022;SDS011;25713;-35.352;149.036;2022-08-19T09:26:40;2.03;;;0.50;;
40022;SDS011;25713;-35.352;149.036;2022-08-19T09:29:09;1.88;;;0.60;;
40022;SDS011;25713;-35.352;149.036;2022-08-19T09:31:39;2.15;;;0.60;;
40022;SDS011;25713;-35.352;149.036;2022-08-19T09:34:08;4.07;;;0.60;;
40022;SDS011;25713;-35.352;149.036;2022-08-19T09:36:37;3.85;;;1.35;;
40022;SDS011;25713;-35.352;149.036;2022-08-19T09:39:09;3.92;;;0.60;;
40022;SDS011;25713;-35.352;149.036;2022-08-19T09:41:38;3.58;;;0.82;;
40022;SDS011;25713;-35.352;149.036;2022-08-19T09:44:07;2.35;;;1.13;;
40022;SDS011;25713;-35.352;149.036;2022-08-19T09:46:36;4.35;;;0.68;;
40022;SDS011;25713;-35.352;149.036;2022-08-19T09:49:06;2.45;;;0.60;;
40022;SDS011;25713;-35.352;149.036;2022-08-19T09:51:35;2.83;;;0.90;;
40022;SDS011;25713;-35.352;149.036;2022-08-19T09:54:06;2.08;;;0.70;;
40022;SDS011;25713;-35.352;149.036;2022-08-19T09:56:36;3.83;;;0.95;;
40022;SDS011;25713;-35.352;149.036;2022-08-19T09:59:05;2.70;;;0.75;;
40022;SDS011;25713;-35.352;149.036;2022-08-19T10:01:35;3.67;;;0.80;;
40022;SDS011;25713;-35.352;149.036;2022-08-19T10:04:04;3.50;;;0.73;;
40022;SDS011;25713;-35.352;149.036;2022-08-19T10:06:34;2.33;;;0.70;;
40022;SDS011;25713;-35.352;149.036;2022-08-19T10:09:08;3.37;;;1.13;;
40022;SDS011;25713;-35.352;149.036;2022-08-19T10:14:08;1.27;;;0.60;;
40022;SDS011;25713;-35.352;149.036;2022-08-19T10:16:37;2.35;;;0.55;;
40022;SDS011;25713;-35.352;149.036;2022-08-19T10:19:06;1.30;;;0.52;;
40022;SDS011;25713;-35.352;149.036;2022-08-19T10:21:36;3.83;;;0.60;;
40022;SDS011;25713;-35.352;149.036;2022-08-19T10:24:05;3.50;;;0.70;;
40022;SDS011;25713;-35.352;149.036;2022-08-19T10:26:37;6.38;;;0.88;;
40022;SDS011;25713;-35.352;149.036;2022-08-19T10:29:07;5.05;;;0.63;;
40022;SDS011;25713;-35.352;149.036;2022-08-19T10:31:37;4.63;;;0.63;;
40022;SDS011;25713;-35.352;149.036;2022-08-19T10:34:07;1.77;;;0.63;;
40022;SDS011;25713;-35.352;149.036;2022-08-19T10:36:37;1.88;;;0.57;;
40022;SDS011;25713;-35.352;149.036;2022-08-19T10:39:08;3.35;;;0.40;;
40022;SDS011;25713;-35.352;149.036;2022-08-19T10:41:39;4.60;;;0.60;;
40022;SDS011;25713;-35.352;149.036;2022-08-19T10:44:09;2.13;;;0.50;;
40022;SDS011;25713;-35.352;149.036;2022-08-19T10:46:40;2.40;;;0.40;;
40022;SDS011;25713;-35.352;149.036;2022-08-19T10:49:10;4.18;;;0.80;;
40022;SDS011;25713;-35.352;149.036;2022-08-19T10:51:41;1.63;;;0.50;;
40022;SDS011;25713;-35.352;149.036;2022-08-19T10:54:12;2.88;;;0.70;;
40022;SDS011;25713;-35.352;149.036;2022-08-19T10:56:41;1.45;;;0.60;;
40022;SDS011;25713;-35.352;149.036;2022-08-19T10:59:11;2.80;;;0.85;;
40022;SDS011;25713;-35.352;149.036;2022-08-19T11:01:41;2.17;;;0.80;;
40022;SDS011;25713;-35.352;149.036;2022-08-19T11:04:11;2.10;;;0.70;;
40022;SDS011;25713;-35.352;149.036;2022-08-19T11:06:41;2.92;;;0.85;;
40022;SDS011;25713;-35.352;149.036;2022-08-19T11:09:13;5.38;;;1.15;;
40022;SDS011;25713;-35.352;149.036;2022-08-19T11:11:43;3.25;;;1.10;;
40022;SDS011;25713;-35.352;149.036;2022-08-19T11:14:14;3.88;;;1.10;;
40022;SDS011;25713;-35.352;149.036;2022-08-19T11:16:44;3.05;;;1.13;;
40022;SDS011;25713;-35.352;149.036;2022-08-19T11:19:15;2.15;;;1.05;;
40022;SDS011;25713;-35.352;149.036;2022-08-19T11:21:47;3.13;;;0.93;;
40022;SDS011;25713;-35.352;149.036;2022-08-19T11:24:20;2.78;;;1.05;;
40022;SDS011;25713;-35.352;149.036;2022-08-19T11:26:52;1.80;;;0.90;;
40022;SDS011;25713;-35.352;149.036;2022-08-19T11:29:22;3.50;;;0.95;;
40022;SDS011;25713;-35.352;149.036;2022-08-19T11:31:52;1.90;;;0.98;;
40022;SDS011;25713;-35.352;149.036;2022-08-19T11:34:22;3.53;;;1.00;;
40022;SDS011;25713;-35.352;149.036;2022-08-19T11:36:53;2.60;;;0.80;;
40022;SDS011;25713;-35.352;149.036;2022-08-19T11:39:25;1.95;;;0.80;;
40022;SDS011;25713;-35.352;149.036;2022-08-19T11:41:56;4.40;;;0.70;;
40022;SDS011;25713;-35.352;149.036;2022-08-19T11:44:26;2.38;;;1.08;;
40022;SDS011;25713;-35.352;149.036;2022-08-19T11:46:56;2.45;;;0.77;;
40022;SDS011;25713;-35.352;149.036;2022-08-19T11:49:25;2.05;;;0.57;;
40022;SDS011;25713;-35.352;149.036;2022-08-19T11:51:55;3.67;;;0.90;;
40022;SDS011;25713;-35.352;149.036;2022-08-19T11:54:26;1.95;;;0.70;;
40022;SDS011;25713;-35.352;149.036;2022-08-19T11:56:56;1.40;;;0.50;;
40022;SDS011;25713;-35.352;149.036;2022-08-19T11:59:25;1.95;;;0.55;;
40022;SDS011;25713;-35.352;149.036;2022-08-19T12:01:55;0.98;;;0.60;;
40022;SDS011;25713;-35.352;149.036;2022-08-19T12:04:24;0.95;;;0.45;;
40022;SDS011;25713;-35.352;149.036;2022-08-19T12:06:53;2.10;;;0.68;;
40022;SDS011;25713;-35.352;149.036;2022-08-19T12:09:23;1.05;;;0.57;;
40022;SDS011;25713;-35.352;149.036;2022-08-19T12:11:54;2.97;;;0.60;;
40022;SDS011;25713;-35.352;149.036;2022-08-19T12:14:24;0.93;;;0.60;;
40022;SDS011;25713;-35.352;149.036;2022-08-19T12:16:53;4.20;;;0.70;;
40022;SDS011;25713;-35.352;149.036;2022-08-19T12:19:23;1.90;;;0.60;;
40022;SDS011;25713;-35.352;149.036;2022-08-19T12:21:52;1.25;;;0.50;;
40022;SDS011;25713;-35.352;149.036;2022-08-19T12:24:29;1.40;;;0.50;;
40022;SDS011;25713;-35.352;149.036;2022-08-19T12:26:59;2.97;;;0.90;;
40022;SDS011;25713;-35.352;149.036;2022-08-19T12:29:28;0.57;;;0.40;;
40022;SDS011;25713;-35.352;149.036;2022-08-19T12:31:58;1.42;;;0.68;;
40022;SDS011;25713;-35.352;149.036;2022-08-19T12:34:28;1.90;;;0.55;;
40022;SDS011;25713;-35.352;149.036;2022-08-19T12:36:59;1.92;;;0.43;;
40022;SDS011;25713;-35.352;149.036;2022-08-19T12:39:35;1.20;;;0.50;;
40022;SDS011;25713;-35.352;149.036;2022-08-19T12:42:06;2.63;;;0.70;;
40022;SDS011;25713;-35.352;149.036;2022-08-19T12:44:36;2.40;;;0.60;;
40022;SDS011;25713;-35.352;149.036;2022-08-19T12:47:06;2.83;;;0.60;;
40022;SDS011;25713;-35.352;149.036;2022-08-19T12:49:36;1.73;;;0.50;;
40022;SDS011;25713;-35.352;149.036;2022-08-19T12:52:06;1.85;;;0.50;;
40022;SDS011;25713;-35.352;149.036;2022-08-19T12:54:39;1.98;;;0.50;;
40022;SDS011;25713;-35.352;149.036;2022-08-19T12:57:08;1.85;;;0.40;;
40022;SDS011;25713;-35.352;149.036;2022-08-19T12:59:38;3.65;;;0.60;;
40022;SDS011;25713;-35.352;149.036;2022-08-19T13:02:07;1.77;;;0.65;;
40022;SDS011;25713;-35.352;149.036;2022-08-19T13:04:37;1.30;;;0.45;;
40022;SDS011;25713;-35.352;149.036;2022-08-19T13:07:07;1.80;;;0.40;;
40022;SDS011;25713;-35.352;149.036;2022-08-19T13:09:38;1.13;;;0.40;;
40022;SDS011;25713;-35.352;149.036;2022-08-19T13:12:08;3.70;;;0.50;;
40022;SDS011;25713;-35.352;149.036;2022-08-19T13:14:37;1.15;;;0.40;;
40022;SDS011;25713;-35.352;149.036;2022-08-19T13:17:07;2.75;;;0.35;;
40022;SDS011;25713;-35.352;149.036;2022-08-19T13:19:36;4.15;;;0.55;;
40022;SDS011;25713;-35.352;149.036;2022-08-19T13:22:06;1.65;;;0.52;;
40022;SDS011;25713;-35.352;149.036;2022-08-19T13:24:37;0.90;;;0.35;;
40022;SDS011;25713;-35.352;149.036;2022-08-19T13:27:07;2.17;;;0.45;;
40022;SDS011;25713;-35.352;149.036;2022-08-19T13:29:36;2.17;;;0.50;;
40022;SDS011;25713;-35.352;149.036;2022-08-19T13:32:07;2.90;;;0.65;;
40022;SDS011;25713;-35.352;149.036;2022-08-19T13:34:36;2.25;;;0.40;;
40022;SDS011;25713;-35.352;149.036;2022-08-19T13:37:06;4.28;;;0.70;;
40022;SDS011;25713;-35.352;149.036;2022-08-19T13:39:37;2.05;;;0.50;;
40022;SDS011;25713;-35.352;149.036;2022-08-19T13:42:07;1.23;;;0.47;;
40022;SDS011;25713;-35.352;149.036;2022-08-19T13:44:36;1.67;;;0.50;;
40022;SDS011;25713;-35.352;149.036;2022-08-19T13:47:06;1.48;;;0.65;;
40022;SDS011;25713;-35.352;149.036;2022-08-19T13:49:35;2.05;;;0.38;;
40022;SDS011;25713;-35.352;149.036;2022-08-19T13:52:08;2.05;;;0.63;;
40022;SDS011;25713;-35.352;149.036;2022-08-19T13:54:39;2.08;;;0.55;;
40022;SDS011;25713;-35.352;149.036;2022-08-19T13:57:08;2.65;;;0.40;;
40022;SDS011;25713;-35.352;149.036;2022-08-19T13:59:37;1.73;;;0.45;;
40022;SDS011;25713;-35.352;149.036;2022-08-19T14:02:07;3.75;;;0.50;;
40022;SDS011;25713;-35.352;149.036;2022-08-19T14:04:36;2.17;;;0.60;;
40022;SDS011;25713;-35.352;149.036;2022-08-19T14:07:09;2.78;;;0.70;;
40022;SDS011;25713;-35.352;149.036;2022-08-19T14:09:40;2.35;;;0.70;;
40022;SDS011;25713;-35.352;149.036;2022-08-19T14:12:10;3.50;;;0.90;;
40022;SDS011;25713;-35.352;149.036;2022-08-19T14:14:39;1.58;;;0.60;;
40022;SDS011;25713;-35.352;149.036;2022-08-19T14:17:09;1.50;;;0.70;;
40022;SDS011;25713;-35.352;149.036;2022-08-19T14:19:38;2.92;;;0.50;;
40022;SDS011;25713;-35.352;149.036;2022-08-19T14:22:07;1.65;;;0.60;;
40022;SDS011;25713;-35.352;149.036;2022-08-19T14:24:37;1.77;;;0.47;;
40022;SDS011;25713;-35.352;149.036;2022-08-19T14:27:08;1.27;;;0.40;;
40022;SDS011;25713;-35.352;149.036;2022-08-19T14:29:38;3.13;;;0.60;;
40022;SDS011;25713;-35.352;149.036;2022-08-19T14:32:07;3.22;;;0.75;;
40022;SDS011;25713;-35.352;149.036;2022-08-19T14:34:37;1.02;;;0.40;;
40022;SDS011;25713;-35.352;149.036;2022-08-19T14:37:06;3.60;;;0.50;;